Accueil
METAR-TAF:

METAR-TAF

Aéroports :

Buochs, Suisse

latitude: 46-58-28N, longitude: 8-23-49E, altitude: 449 m

Observation

Le bulletin a été fait il y a 23 minutes, à 08:20 UTC
Vent 4 kt de ouest/sud-ouest
Température -1°C
Humidité 100%
Pression 1023 hPa
Visibilité: 1400 m
brume

METAR: LSZC 060820Z 25004KT 1400 BR VV002 M01/M01 Q1023 RMK BELOW SVFR

Heure: 09:43 (08:43 UTC)

Prévision

Le bulletin a été fait il y a 18 minutes, à 08:25 UTC
Prévision valable du 06 à 09 UTC au 06 à 18 UTC
Vent 4 kt de sud-ouest
Visibilité: 0700 m
à une hauteur de 200 ft
brouillard givrant
Evoluant progressivement
du 06 à 09 UTC au 06 à 11 UTC
Visibilité: 4000 m
Nuages épars à une hauteur de 700 ft
brume
Evoluant progressivement
du 06 à 11 UTC au 06 à 14 UTC
Visibilité 10 km ou plus
pas de nuages en-dessous de 1500 mètres et pas de cumulonimbus.

TAF: LSZC 060825Z 0609/0618 23004KT 0700 FZFG VV002 BECMG 0609/0611 4000 BR SCT007 BECMG 0611/0614 CAVOK

Observations et prévisions météorologiques de plus de 4000 aéroports (messages METAR et TAF).

Les stations disponibles sont représentées par des disques jaunes et rouges sur la carte.

Passer la souris dessus pour voir le nom de la station.

Cliquer dessus pour voir les observations et prévisions météorologiques.

Pour changer de carte: cliquez sur les boutons verts avec une croix noire pour zoomer, sur le bouton vert avec un tiret pour effectuer un zoom arrière, ou sur les flèches vertes pour les cartes adjacentes.


METAR-TAF: